sensor_id;sensor_type;location;lat;lon;timestamp;P1;durP1;ratioP1;P2;durP2;ratioP2
49972;SDS011;65693;49.798;10.968;2023-02-13T00:00:37;9.68;;;5.97;;
49972;SDS011;65693;49.798;10.968;2023-02-13T00:03:04;9.00;;;6.15;;
49972;SDS011;65693;49.798;10.968;2023-02-13T00:05:32;7.95;;;5.30;;
49972;SDS011;65693;49.798;10.968;2023-02-13T00:07:58;8.85;;;5.80;;
49972;SDS011;65693;49.798;10.968;2023-02-13T00:10:25;8.35;;;5.90;;
49972;SDS011;65693;49.798;10.968;2023-02-13T00:12:51;7.70;;;5.50;;
49972;SDS011;65693;49.798;10.968;2023-02-13T00:15:18;8.65;;;5.40;;
49972;SDS011;65693;49.798;10.968;2023-02-13T00:17:44;8.32;;;5.57;;
49972;SDS011;65693;49.798;10.968;2023-02-13T00:20:11;8.02;;;5.80;;
49972;SDS011;65693;49.798;10.968;2023-02-13T00:22:39;9.05;;;6.00;;
49972;SDS011;65693;49.798;10.968;2023-02-13T00:25:06;8.43;;;5.38;;
49972;SDS011;65693;49.798;10.968;2023-02-13T00:27:33;7.88;;;5.40;;
49972;SDS011;65693;49.798;10.968;2023-02-13T00:30:00;8.00;;;5.50;;
49972;SDS011;65693;49.798;10.968;2023-02-13T00:32:27;7.38;;;4.65;;
49972;SDS011;65693;49.798;10.968;2023-02-13T00:34:53;8.25;;;5.20;;
49972;SDS011;65693;49.798;10.968;2023-02-13T00:37:20;7.40;;;5.50;;
49972;SDS011;65693;49.798;10.968;2023-02-13T00:39:48;8.05;;;5.25;;
49972;SDS011;65693;49.798;10.968;2023-02-13T00:42:14;8.77;;;5.53;;
49972;SDS011;65693;49.798;10.968;2023-02-13T00:44:40;7.68;;;4.88;;
49972;SDS011;65693;49.798;10.968;2023-02-13T00:47:07;8.70;;;5.38;;
49972;SDS011;65693;49.798;10.968;2023-02-13T00:49:33;8.55;;;5.63;;
49972;SDS011;65693;49.798;10.968;2023-02-13T00:52:00;7.57;;;5.15;;
49972;SDS011;65693;49.798;10.968;2023-02-13T00:54:26;8.27;;;5.82;;
49972;SDS011;65693;49.798;10.968;2023-02-13T00:56:54;7.95;;;5.53;;
49972;SDS011;65693;49.798;10.968;2023-02-13T00:59:20;8.60;;;5.15;;
49972;SDS011;65693;49.798;10.968;2023-02-13T01:01:47;7.15;;;5.00;;
49972;SDS011;65693;49.798;10.968;2023-02-13T01:04:13;8.27;;;5.80;;
49972;SDS011;65693;49.798;10.968;2023-02-13T01:06:39;8.50;;;5.53;;
49972;SDS011;65693;49.798;10.968;2023-02-13T01:09:06;8.93;;;6.05;;
49972;SDS011;65693;49.798;10.968;2023-02-13T01:11:32;7.82;;;5.63;;
49972;SDS011;65693;49.798;10.968;2023-02-13T01:14:00;8.48;;;5.15;;
49972;SDS011;65693;49.798;10.968;2023-02-13T01:16:26;7.47;;;4.95;;
49972;SDS011;65693;49.798;10.968;2023-02-13T01:18:53;6.72;;;4.80;;
49972;SDS011;65693;49.798;10.968;2023-02-13T01:21:20;9.25;;;5.65;;
49972;SDS011;65693;49.798;10.968;2023-02-13T01:23:47;8.45;;;5.32;;
49972;SDS011;65693;49.798;10.968;2023-02-13T01:26:15;7.75;;;5.20;;
49972;SDS011;65693;49.798;10.968;2023-02-13T01:28:43;8.00;;;5.35;;
49972;SDS011;65693;49.798;10.968;2023-02-13T01:31:11;6.90;;;4.97;;
49972;SDS011;65693;49.798;10.968;2023-02-13T01:33:38;8.55;;;5.50;;
49972;SDS011;65693;49.798;10.968;2023-02-13T01:36:05;7.85;;;5.47;;
49972;SDS011;65693;49.798;10.968;2023-02-13T01:38:32;8.27;;;5.43;;
49972;SDS011;65693;49.798;10.968;2023-02-13T01:40:59;8.18;;;5.47;;
49972;SDS011;65693;49.798;10.968;2023-02-13T01:43:40;7.68;;;5.50;;
49972;SDS011;65693;49.798;10.968;2023-02-13T01:46:09;7.80;;;5.20;;
49972;SDS011;65693;49.798;10.968;2023-02-13T01:48:38;8.57;;;5.60;;
49972;SDS011;65693;49.798;10.968;2023-02-13T01:51:05;8.45;;;5.82;;
49972;SDS011;65693;49.798;10.968;2023-02-13T01:53:36;7.35;;;5.15;;
49972;SDS011;65693;49.798;10.968;2023-02-13T01:56:08;7.72;;;5.38;;
49972;SDS011;65693;49.798;10.968;2023-02-13T01:58:38;8.57;;;5.78;;
49972;SDS011;65693;49.798;10.968;2023-02-13T02:01:07;7.97;;;5.55;;
49972;SDS011;65693;49.798;10.968;2023-02-13T02:03:35;8.02;;;5.30;;
49972;SDS011;65693;49.798;10.968;2023-02-13T02:06:08;7.47;;;5.50;;
49972;SDS011;65693;49.798;10.968;2023-02-13T02:08:37;7.93;;;5.50;;
49972;SDS011;65693;49.798;10.968;2023-02-13T02:11:08;8.45;;;5.80;;
49972;SDS011;65693;49.798;10.968;2023-02-13T02:13:42;8.40;;;5.57;;
49972;SDS011;65693;49.798;10.968;2023-02-13T02:16:10;6.95;;;5.15;;
49972;SDS011;65693;49.798;10.968;2023-02-13T02:18:36;6.65;;;4.68;;
49972;SDS011;65693;49.798;10.968;2023-02-13T02:21:20;7.28;;;5.50;;
49972;SDS011;65693;49.798;10.968;2023-02-13T02:24:18;9.13;;;5.95;;
49972;SDS011;65693;49.798;10.968;2023-02-13T02:27:26;8.00;;;5.57;;
49972;SDS011;65693;49.798;10.968;2023-02-13T02:33:22;7.75;;;5.47;;
49972;SDS011;65693;49.798;10.968;2023-02-13T02:36:00;8.07;;;5.60;;
49972;SDS011;65693;49.798;10.968;2023-02-13T02:38:39;8.80;;;5.55;;
49972;SDS011;65693;49.798;10.968;2023-02-13T02:41:17;7.65;;;5.60;;
49972;SDS011;65693;49.798;10.968;2023-02-13T02:44:07;7.32;;;5.47;;
49972;SDS011;65693;49.798;10.968;2023-02-13T02:46:46;8.27;;;5.60;;
49972;SDS011;65693;49.798;10.968;2023-02-13T02:49:37;6.95;;;5.03;;
49972;SDS011;65693;49.798;10.968;2023-02-13T02:52:26;8.18;;;5.40;;
49972;SDS011;65693;49.798;10.968;2023-02-13T02:55:01;7.53;;;5.60;;
49972;SDS011;65693;49.798;10.968;2023-02-13T02:57:33;8.60;;;5.75;;
49972;SDS011;65693;49.798;10.968;2023-02-13T03:00:23;7.70;;;5.30;;
49972;SDS011;65693;49.798;10.968;2023-02-13T03:03:23;7.80;;;5.40;;
49972;SDS011;65693;49.798;10.968;2023-02-13T03:06:11;7.38;;;5.25;;
49972;SDS011;65693;49.798;10.968;2023-02-13T03:08:42;8.27;;;5.60;;
49972;SDS011;65693;49.798;10.968;2023-02-13T03:11:28;7.18;;;5.35;;
49972;SDS011;65693;49.798;10.968;2023-02-13T03:14:14;8.27;;;5.85;;
49972;SDS011;65693;49.798;10.968;2023-02-13T03:16:44;7.80;;;5.88;;
49972;SDS011;65693;49.798;10.968;2023-02-13T03:19:30;7.50;;;6.07;;
49972;SDS011;65693;49.798;10.968;2023-02-13T03:22:25;7.82;;;5.40;;
49972;SDS011;65693;49.798;10.968;2023-02-13T03:25:02;6.90;;;4.63;;
49972;SDS011;65693;49.798;10.968;2023-02-13T03:27:37;7.07;;;5.40;;
49972;SDS011;65693;49.798;10.968;2023-02-13T03:30:29;8.30;;;5.55;;
49972;SDS011;65693;49.798;10.968;2023-02-13T03:33:07;8.15;;;5.53;;
49972;SDS011;65693;49.798;10.968;2023-02-13T03:35:49;7.43;;;5.03;;
49972;SDS011;65693;49.798;10.968;2023-02-13T03:38:43;6.35;;;5.20;;
49972;SDS011;65693;49.798;10.968;2023-02-13T03:41:17;8.10;;;5.60;;
49972;SDS011;65693;49.798;10.968;2023-02-13T03:43:55;7.43;;;5.20;;
49972;SDS011;65693;49.798;10.968;2023-02-13T03:46:29;6.53;;;5.13;;
49972;SDS011;65693;49.798;10.968;2023-02-13T03:48:59;7.28;;;5.68;;
49972;SDS011;65693;49.798;10.968;2023-02-13T03:51:48;7.25;;;5.72;;
49972;SDS011;65693;49.798;10.968;2023-02-13T03:54:21;7.38;;;5.57;;
49972;SDS011;65693;49.798;10.968;2023-02-13T03:57:09;7.38;;;5.07;;
49972;SDS011;65693;49.798;10.968;2023-02-13T03:59:57;7.20;;;5.07;;
49972;SDS011;65693;49.798;10.968;2023-02-13T04:02:24;6.78;;;5.18;;
49972;SDS011;65693;49.798;10.968;2023-02-13T04:04:57;6.60;;;4.68;;
49972;SDS011;65693;49.798;10.968;2023-02-13T04:07:29;6.70;;;5.18;;
49972;SDS011;65693;49.798;10.968;2023-02-13T04:09:58;8.30;;;5.95;;
49972;SDS011;65693;49.798;10.968;2023-02-13T04:12:30;7.05;;;5.03;;
49972;SDS011;65693;49.798;10.968;2023-02-13T04:15:03;7.38;;;5.20;;
49972;SDS011;65693;49.798;10.968;2023-02-13T04:17:36;6.18;;;4.35;;
49972;SDS011;65693;49.798;10.968;2023-02-13T04:20:07;6.63;;;5.07;;
49972;SDS011;65693;49.798;10.968;2023-02-13T04:22:34;6.45;;;4.65;;
49972;SDS011;65693;49.798;10.968;2023-02-13T04:25:08;6.60;;;4.57;;
49972;SDS011;65693;49.798;10.968;2023-02-13T04:27:35;7.72;;;5.63;;
49972;SDS011;65693;49.798;10.968;2023-02-13T04:30:02;7.40;;;4.90;;
49972;SDS011;65693;49.798;10.968;2023-02-13T04:32:29;6.53;;;4.53;;
49972;SDS011;65693;49.798;10.968;2023-02-13T04:34:55;6.53;;;4.75;;
49972;SDS011;65693;49.798;10.968;2023-02-13T04:37:21;7.32;;;5.18;;
49972;SDS011;65693;49.798;10.968;2023-02-13T04:39:48;5.93;;;4.55;;
49972;SDS011;65693;49.798;10.968;2023-02-13T04:42:15;6.50;;;4.63;;
49972;SDS011;65693;49.798;10.968;2023-02-13T04:44:42;6.30;;;5.00;;
49972;SDS011;65693;49.798;10.968;2023-02-13T04:47:08;7.38;;;4.82;;
49972;SDS011;65693;49.798;10.968;2023-02-13T04:49:35;6.32;;;4.78;;
49972;SDS011;65693;49.798;10.968;2023-02-13T04:52:01;7.07;;;5.25;;
49972;SDS011;65693;49.798;10.968;2023-02-13T04:54:28;6.88;;;5.13;;
49972;SDS011;65693;49.798;10.968;2023-02-13T04:56:54;7.07;;;5.22;;
49972;SDS011;65693;49.798;10.968;2023-02-13T04:59:22;6.57;;;4.75;;
49972;SDS011;65693;49.798;10.968;2023-02-13T05:01:48;6.97;;;5.72;;
49972;SDS011;65693;49.798;10.968;2023-02-13T05:04:14;7.28;;;5.28;;
49972;SDS011;65693;49.798;10.968;2023-02-13T05:06:41;6.97;;;4.90;;
49972;SDS011;65693;49.798;10.968;2023-02-13T05:09:08;7.13;;;4.88;;
49972;SDS011;65693;49.798;10.968;2023-02-13T05:11:35;6.18;;;4.22;;
49972;SDS011;65693;49.798;10.968;2023-02-13T05:14:02;6.97;;;5.13;;
49972;SDS011;65693;49.798;10.968;2023-02-13T05:16:29;6.60;;;5.00;;
49972;SDS011;65693;49.798;10.968;2023-02-13T05:18:56;6.85;;;4.93;;
49972;SDS011;65693;49.798;10.968;2023-02-13T05:21:22;7.80;;;5.00;;
49972;SDS011;65693;49.798;10.968;2023-02-13T05:24:06;6.57;;;4.60;;
49972;SDS011;65693;49.798;10.968;2023-02-13T05:26:33;7.25;;;4.95;;
49972;SDS011;65693;49.798;10.968;2023-02-13T05:28:59;8.10;;;5.75;;
49972;SDS011;65693;49.798;10.968;2023-02-13T05:31:45;6.63;;;4.88;;
49972;SDS011;65693;49.798;10.968;2023-02-13T05:34:13;7.25;;;5.07;;
49972;SDS011;65693;49.798;10.968;2023-02-13T05:36:39;6.68;;;4.70;;
49972;SDS011;65693;49.798;10.968;2023-02-13T05:39:06;6.95;;;4.82;;
49972;SDS011;65693;49.798;10.968;2023-02-13T05:41:32;7.78;;;5.45;;
49972;SDS011;65693;49.798;10.968;2023-02-13T05:43:59;6.82;;;5.18;;
49972;SDS011;65693;49.798;10.968;2023-02-13T05:46:25;7.90;;;5.15;;
49972;SDS011;65693;49.798;10.968;2023-02-13T05:48:53;6.53;;;4.78;;
49972;SDS011;65693;49.798;10.968;2023-02-13T05:51:20;6.28;;;4.82;;
49972;SDS011;65693;49.798;10.968;2023-02-13T05:53:46;6.82;;;4.55;;
49972;SDS011;65693;49.798;10.968;2023-02-13T05:56:12;7.15;;;5.00;;
49972;SDS011;65693;49.798;10.968;2023-02-13T05:58:39;6.70;;;4.40;;
49972;SDS011;65693;49.798;10.968;2023-02-13T06:01:05;7.55;;;4.78;;
49972;SDS011;65693;49.798;10.968;2023-02-13T06:03:32;6.25;;;4.60;;
49972;SDS011;65693;49.798;10.968;2023-02-13T06:06:00;7.05;;;4.50;;
49972;SDS011;65693;49.798;10.968;2023-02-13T06:08:26;6.93;;;4.70;;
49972;SDS011;65693;49.798;10.968;2023-02-13T06:10:53;6.15;;;4.65;;
49972;SDS011;65693;49.798;10.968;2023-02-13T06:13:19;6.57;;;4.75;;
49972;SDS011;65693;49.798;10.968;2023-02-13T06:15:46;6.88;;;4.68;;
49972;SDS011;65693;49.798;10.968;2023-02-13T06:18:12;6.15;;;4.63;;
49972;SDS011;65693;49.798;10.968;2023-02-13T06:20:39;7.90;;;5.95;;
49972;SDS011;65693;49.798;10.968;2023-02-13T06:23:06;7.70;;;6.07;;
49972;SDS011;65693;49.798;10.968;2023-02-13T06:25:33;7.32;;;5.13;;
49972;SDS011;65693;49.798;10.968;2023-02-13T06:28:00;7.47;;;5.65;;
49972;SDS011;65693;49.798;10.968;2023-02-13T06:30:26;7.97;;;5.07;;
49972;SDS011;65693;49.798;10.968;2023-02-13T06:32:54;7.68;;;5.80;;
49972;SDS011;65693;49.798;10.968;2023-02-13T06:35:21;7.47;;;5.00;;
49972;SDS011;65693;49.798;10.968;2023-02-13T06:37:48;6.15;;;4.85;;
49972;SDS011;65693;49.798;10.968;2023-02-13T06:40:16;7.07;;;5.57;;
49972;SDS011;65693;49.798;10.968;2023-02-13T06:42:43;6.85;;;4.95;;
49972;SDS011;65693;49.798;10.968;2023-02-13T06:45:10;8.80;;;5.50;;
49972;SDS011;65693;49.798;10.968;2023-02-13T06:47:39;7.72;;;5.28;;
49972;SDS011;65693;49.798;10.968;2023-02-13T06:50:06;6.53;;;4.55;;
49972;SDS011;65693;49.798;10.968;2023-02-13T06:52:33;7.72;;;5.10;;
49972;SDS011;65693;49.798;10.968;2023-02-13T06:55:00;6.45;;;5.07;;
49972;SDS011;65693;49.798;10.968;2023-02-13T06:57:44;7.65;;;5.10;;
49972;SDS011;65693;49.798;10.968;2023-02-13T07:00:31;7.28;;;5.05;;
49972;SDS011;65693;49.798;10.968;2023-02-13T07:03:00;6.47;;;4.65;;
49972;SDS011;65693;49.798;10.968;2023-02-13T07:05:27;7.35;;;5.10;;
49972;SDS011;65693;49.798;10.968;2023-02-13T07:07:54;6.97;;;4.70;;
49972;SDS011;65693;49.798;10.968;2023-02-13T07:10:20;7.10;;;5.15;;
49972;SDS011;65693;49.798;10.968;2023-02-13T07:12:48;7.15;;;4.85;;
49972;SDS011;65693;49.798;10.968;2023-02-13T07:15:15;6.55;;;4.72;;
49972;SDS011;65693;49.798;10.968;2023-02-13T07:17:41;5.75;;;4.30;;
49972;SDS011;65693;49.798;10.968;2023-02-13T07:20:08;6.57;;;4.75;;
49972;SDS011;65693;49.798;10.968;2023-02-13T07:22:35;6.60;;;4.85;;
49972;SDS011;65693;49.798;10.968;2023-02-13T07:25:01;6.60;;;4.32;;
49972;SDS011;65693;49.798;10.968;2023-02-13T07:27:28;6.15;;;4.28;;
49972;SDS011;65693;49.798;10.968;2023-02-13T07:29:56;5.85;;;4.55;;
49972;SDS011;65693;49.798;10.968;2023-02-13T07:32:22;5.88;;;4.47;;
49972;SDS011;65693;49.798;10.968;2023-02-13T07:34:49;7.15;;;4.45;;
49972;SDS011;65693;49.798;10.968;2023-02-13T07:37:15;6.22;;;3.95;;
49972;SDS011;65693;49.798;10.968;2023-02-13T07:39:42;6.38;;;4.65;;
49972;SDS011;65693;49.798;10.968;2023-02-13T07:42:08;5.30;;;4.13;;
49972;SDS011;65693;49.798;10.968;2023-02-13T07:44:35;5.15;;;3.75;;
49972;SDS011;65693;49.798;10.968;2023-02-13T07:47:02;6.13;;;4.47;;
49972;SDS011;65693;49.798;10.968;2023-02-13T07:49:29;6.25;;;4.07;;
49972;SDS011;65693;49.798;10.968;2023-02-13T07:51:55;5.85;;;4.18;;
49972;SDS011;65693;49.798;10.968;2023-02-13T07:54:22;5.93;;;4.03;;
49972;SDS011;65693;49.798;10.968;2023-02-13T07:56:49;6.18;;;4.03;;
49972;SDS011;65693;49.798;10.968;2023-02-13T07:59:15;5.40;;;3.78;;
49972;SDS011;65693;49.798;10.968;2023-02-13T08:01:42;6.03;;;4.32;;
49972;SDS011;65693;49.798;10.968;2023-02-13T08:04:09;5.40;;;3.97;;
49972;SDS011;65693;49.798;10.968;2023-02-13T08:06:37;6.00;;;3.75;;
49972;SDS011;65693;49.798;10.968;2023-02-13T08:09:04;6.05;;;3.78;;
49972;SDS011;65693;49.798;10.968;2023-02-13T08:11:48;6.00;;;4.07;;
49972;SDS011;65693;49.798;10.968;2023-02-13T08:14:21;5.40;;;3.60;;
49972;SDS011;65693;49.798;10.968;2023-02-13T08:16:48;5.43;;;3.80;;
49972;SDS011;65693;49.798;10.968;2023-02-13T08:19:17;5.40;;;3.70;;
49972;SDS011;65693;49.798;10.968;2023-02-13T08:21:44;4.85;;;3.78;;
49972;SDS011;65693;49.798;10.968;2023-02-13T08:24:10;4.85;;;3.72;;
49972;SDS011;65693;49.798;10.968;2023-02-13T08:26:37;5.53;;;3.88;;
49972;SDS011;65693;49.798;10.968;2023-02-13T08:29:04;5.25;;;3.70;;
49972;SDS011;65693;49.798;10.968;2023-02-13T08:31:31;5.93;;;3.85;;
49972;SDS011;65693;49.798;10.968;2023-02-13T08:33:57;5.65;;;3.72;;
49972;SDS011;65693;49.798;10.968;2023-02-13T08:36:25;6.30;;;3.92;;
49972;SDS011;65693;49.798;10.968;2023-02-13T08:38:52;5.55;;;3.88;;
49972;SDS011;65693;49.798;10.968;2023-02-13T08:41:18;5.47;;;3.63;;
49972;SDS011;65693;49.798;10.968;2023-02-13T08:43:46;5.20;;;3.67;;
49972;SDS011;65693;49.798;10.968;2023-02-13T08:46:13;5.53;;;3.78;;
49972;SDS011;65693;49.798;10.968;2023-02-13T08:48:39;6.15;;;3.45;;
49972;SDS011;65693;49.798;10.968;2023-02-13T08:51:06;5.43;;;3.65;;
49972;SDS011;65693;49.798;10.968;2023-02-13T08:53:34;5.38;;;3.53;;
49972;SDS011;65693;49.798;10.968;2023-02-13T08:56:01;5.18;;;3.70;;
49972;SDS011;65693;49.798;10.968;2023-02-13T08:58:28;5.05;;;3.60;;
49972;SDS011;65693;49.798;10.968;2023-02-13T09:00:55;4.63;;;3.00;;
49972;SDS011;65693;49.798;10.968;2023-02-13T09:03:21;5.18;;;3.42;;
49972;SDS011;65693;49.798;10.968;2023-02-13T09:05:48;5.03;;;3.30;;
49972;SDS011;65693;49.798;10.968;2023-02-13T09:08:15;5.07;;;3.35;;
49972;SDS011;65693;49.798;10.968;2023-02-13T09:10:42;5.22;;;3.72;;
49972;SDS011;65693;49.798;10.968;2023-02-13T09:13:09;5.45;;;3.22;;
49972;SDS011;65693;49.798;10.968;2023-02-13T09:15:36;5.05;;;3.30;;
49972;SDS011;65693;49.798;10.968;2023-02-13T09:18:03;4.88;;;3.30;;
49972;SDS011;65693;49.798;10.968;2023-02-13T09:20:30;5.63;;;3.30;;
49972;SDS011;65693;49.798;10.968;2023-02-13T09:22:56;5.50;;;3.83;;
49972;SDS011;65693;49.798;10.968;2023-02-13T09:25:23;4.68;;;3.30;;
49972;SDS011;65693;49.798;10.968;2023-02-13T09:27:51;4.57;;;2.95;;
49972;SDS011;65693;49.798;10.968;2023-02-13T09:30:18;5.63;;;3.55;;
49972;SDS011;65693;49.798;10.968;2023-02-13T09:32:48;3.92;;;3.00;;
49972;SDS011;65693;49.798;10.968;2023-02-13T09:35:14;4.53;;;3.35;;
49972;SDS011;65693;49.798;10.968;2023-02-13T09:37:41;4.93;;;3.33;;
49972;SDS011;65693;49.798;10.968;2023-02-13T09:40:12;4.60;;;3.63;;
49972;SDS011;65693;49.798;10.968;2023-02-13T09:42:43;5.05;;;3.08;;
49972;SDS011;65693;49.798;10.968;2023-02-13T09:45:12;4.93;;;3.70;;
49972;SDS011;65693;49.798;10.968;2023-02-13T09:47:42;4.60;;;3.17;;
49972;SDS011;65693;49.798;10.968;2023-02-13T09:50:11;5.00;;;3.10;;
49972;SDS011;65693;49.798;10.968;2023-02-13T09:52:44;4.80;;;2.80;;
49972;SDS011;65693;49.798;10.968;2023-02-13T09:55:15;4.90;;;3.33;;
49972;SDS011;65693;49.798;10.968;2023-02-13T09:57:44;5.07;;;3.28;;
49972;SDS011;65693;49.798;10.968;2023-02-13T10:00:20;5.22;;;3.20;;
49972;SDS011;65693;49.798;10.968;2023-02-13T10:05:45;4.10;;;3.03;;
49972;SDS011;65693;49.798;10.968;2023-02-13T10:08:24;4.70;;;3.17;;
49972;SDS011;65693;49.798;10.968;2023-02-13T10:11:02;4.45;;;2.88;;
49972;SDS011;65693;49.798;10.968;2023-02-13T10:13:44;5.00;;;3.10;;
49972;SDS011;65693;49.798;10.968;2023-02-13T10:16:28;4.88;;;3.08;;
49972;SDS011;65693;49.798;10.968;2023-02-13T10:19:10;4.22;;;3.05;;
49972;SDS011;65693;49.798;10.968;2023-02-13T10:21:46;4.75;;;2.95;;
49972;SDS011;65693;49.798;10.968;2023-02-13T10:24:20;5.35;;;3.28;;
49972;SDS011;65693;49.798;10.968;2023-02-13T10:26:55;4.90;;;2.97;;
49972;SDS011;65693;49.798;10.968;2023-02-13T10:29:24;4.30;;;3.05;;
49972;SDS011;65693;49.798;10.968;2023-02-13T10:32:21;5.30;;;3.20;;
49972;SDS011;65693;49.798;10.968;2023-02-13T10:34:52;4.65;;;3.00;;
49972;SDS011;65693;49.798;10.968;2023-02-13T10:37:23;5.13;;;3.25;;
49972;SDS011;65693;49.798;10.968;2023-02-13T10:39:50;5.38;;;3.35;;
49972;SDS011;65693;49.798;10.968;2023-02-13T10:42:19;5.30;;;3.38;;
49972;SDS011;65693;49.798;10.968;2023-02-13T10:44:50;4.82;;;3.00;;
49972;SDS011;65693;49.798;10.968;2023-02-13T10:47:33;4.18;;;2.60;;
49972;SDS011;65693;49.798;10.968;2023-02-13T10:50:10;4.57;;;2.75;;
49972;SDS011;65693;49.798;10.968;2023-02-13T10:52:48;4.53;;;3.10;;
49972;SDS011;65693;49.798;10.968;2023-02-13T10:55:28;4.60;;;3.08;;
49972;SDS011;65693;49.798;10.968;2023-02-13T10:58:06;5.68;;;3.30;;
49972;SDS011;65693;49.798;10.968;2023-02-13T11:00:40;5.20;;;3.25;;
49972;SDS011;65693;49.798;10.968;2023-02-13T11:03:16;4.45;;;2.90;;
49972;SDS011;65693;49.798;10.968;2023-02-13T11:05:44;5.22;;;3.55;;
49972;SDS011;65693;49.798;10.968;2023-02-13T11:08:13;5.22;;;3.28;;
49972;SDS011;65693;49.798;10.968;2023-02-13T11:10:43;4.45;;;3.30;;
49972;SDS011;65693;49.798;10.968;2023-02-13T11:13:16;4.78;;;3.42;;
49972;SDS011;65693;49.798;10.968;2023-02-13T11:15:57;5.38;;;3.53;;
49972;SDS011;65693;49.798;10.968;2023-02-13T11:18:27;6.25;;;3.47;;
49972;SDS011;65693;49.798;10.968;2023-02-13T11:21:00;5.93;;;3.63;;
49972;SDS011;65693;49.798;10.968;2023-02-13T11:23:39;5.32;;;3.28;;
49972;SDS011;65693;49.798;10.968;2023-02-13T11:26:09;5.72;;;3.85;;
49972;SDS011;65693;49.798;10.968;2023-02-13T11:28:44;5.75;;;3.65;;
49972;SDS011;65693;49.798;10.968;2023-02-13T11:31:20;5.78;;;3.90;;
49972;SDS011;65693;49.798;10.968;2023-02-13T11:33:50;5.97;;;3.92;;
49972;SDS011;65693;49.798;10.968;2023-02-13T11:36:21;6.40;;;3.97;;
49972;SDS011;65693;49.798;10.968;2023-02-13T11:38:56;6.30;;;3.45;;
49972;SDS011;65693;49.798;10.968;2023-02-13T11:41:23;5.15;;;3.42;;
49972;SDS011;65693;49.798;10.968;2023-02-13T11:43:52;5.63;;;3.70;;
49972;SDS011;65693;49.798;10.968;2023-02-13T11:46:25;5.63;;;3.80;;
49972;SDS011;65693;49.798;10.968;2023-02-13T11:48:58;5.65;;;3.90;;
49972;SDS011;65693;49.798;10.968;2023-02-13T11:51:40;5.32;;;3.67;;
49972;SDS011;65693;49.798;10.968;2023-02-13T11:54:20;5.03;;;3.67;;
49972;SDS011;65693;49.798;10.968;2023-02-13T11:56:51;6.47;;;3.55;;
49972;SDS011;65693;49.798;10.968;2023-02-13T11:59:20;5.88;;;3.78;;
49972;SDS011;65693;49.798;10.968;2023-02-13T12:01:49;5.85;;;3.83;;
49972;SDS011;65693;49.798;10.968;2023-02-13T12:04:28;5.53;;;3.60;;
49972;SDS011;65693;49.798;10.968;2023-02-13T12:06:59;5.90;;;4.00;;
49972;SDS011;65693;49.798;10.968;2023-02-13T12:09:28;5.65;;;3.75;;
49972;SDS011;65693;49.798;10.968;2023-02-13T12:11:56;5.38;;;3.78;;
49972;SDS011;65693;49.798;10.968;2023-02-13T12:14:25;5.50;;;3.58;;
49972;SDS011;65693;49.798;10.968;2023-02-13T12:16:56;5.22;;;3.22;;
49972;SDS011;65693;49.798;10.968;2023-02-13T12:19:30;5.82;;;3.85;;
49972;SDS011;65693;49.798;10.968;2023-02-13T12:22:07;5.78;;;3.67;;
49972;SDS011;65693;49.798;10.968;2023-02-13T12:24:46;5.35;;;3.60;;
49972;SDS011;65693;49.798;10.968;2023-02-13T12:27:26;6.03;;;3.67;;
49972;SDS011;65693;49.798;10.968;2023-02-13T12:30:07;5.45;;;3.65;;
49972;SDS011;65693;49.798;10.968;2023-02-13T12:32:46;6.13;;;3.60;;
49972;SDS011;65693;49.798;10.968;2023-02-13T12:35:29;5.78;;;3.72;;
49972;SDS011;65693;49.798;10.968;2023-02-13T12:38:09;5.85;;;4.15;;
49972;SDS011;65693;49.798;10.968;2023-02-13T12:40:52;6.32;;;3.67;;
49972;SDS011;65693;49.798;10.968;2023-02-13T12:43:43;5.53;;;3.58;;
49972;SDS011;65693;49.798;10.968;2023-02-13T12:46:39;6.15;;;3.95;;
49972;SDS011;65693;49.798;10.968;2023-02-13T12:49:17;6.00;;;3.70;;
49972;SDS011;65693;49.798;10.968;2023-02-13T12:51:55;5.80;;;3.88;;
49972;SDS011;65693;49.798;10.968;2023-02-13T12:54:39;5.55;;;3.67;;
49972;SDS011;65693;49.798;10.968;2023-02-13T12:57:18;6.10;;;4.05;;
49972;SDS011;65693;49.798;10.968;2023-02-13T12:59:59;5.68;;;4.10;;
49972;SDS011;65693;49.798;10.968;2023-02-13T13:02:44;6.70;;;4.25;;
49972;SDS011;65693;49.798;10.968;2023-02-13T13:05:22;6.03;;;3.78;;
49972;SDS011;65693;49.798;10.968;2023-02-13T13:08:01;6.15;;;4.00;;
49972;SDS011;65693;49.798;10.968;2023-02-13T13:10:41;5.97;;;3.95;;
49972;SDS011;65693;49.798;10.968;2023-02-13T13:13:20;6.78;;;4.05;;
49972;SDS011;65693;49.798;10.968;2023-02-13T13:15:58;6.57;;;4.25;;
49972;SDS011;65693;49.798;10.968;2023-02-13T13:18:34;6.10;;;4.05;;
49972;SDS011;65693;49.798;10.968;2023-02-13T13:21:16;5.70;;;3.95;;
49972;SDS011;65693;49.798;10.968;2023-02-13T13:23:52;5.70;;;3.90;;
49972;SDS011;65693;49.798;10.968;2023-02-13T13:26:26;6.75;;;4.00;;
49972;SDS011;65693;49.798;10.968;2023-02-13T13:29:02;6.20;;;4.00;;
49972;SDS011;65693;49.798;10.968;2023-02-13T13:31:31;6.03;;;4.18;;
49972;SDS011;65693;49.798;10.968;2023-02-13T13:34:03;6.53;;;3.90;;
49972;SDS011;65693;49.798;10.968;2023-02-13T13:36:35;6.10;;;3.63;;
49972;SDS011;65693;49.798;10.968;2023-02-13T13:39:14;5.70;;;4.00;;
49972;SDS011;65693;49.798;10.968;2023-02-13T13:41:49;5.80;;;4.03;;
49972;SDS011;65693;49.798;10.968;2023-02-13T13:44:35;5.45;;;3.88;;
49972;SDS011;65693;49.798;10.968;2023-02-13T13:47:15;5.68;;;3.70;;
49972;SDS011;65693;49.798;10.968;2023-02-13T13:49:50;6.70;;;4.30;;
49972;SDS011;65693;49.798;10.968;2023-02-13T13:52:20;6.43;;;4.10;;
49972;SDS011;65693;49.798;10.968;2023-02-13T13:54:50;5.28;;;3.42;;
49972;SDS011;65693;49.798;10.968;2023-02-13T13:57:20;5.93;;;3.90;;
49972;SDS011;65693;49.798;10.968;2023-02-13T13:59:58;5.50;;;3.65;;
49972;SDS011;65693;49.798;10.968;2023-02-13T14:02:44;6.28;;;3.88;;
49972;SDS011;65693;49.798;10.968;2023-02-13T14:05:23;5.45;;;3.70;;
49972;SDS011;65693;49.798;10.968;2023-02-13T14:07:52;5.88;;;3.92;;
49972;SDS011;65693;49.798;10.968;2023-02-13T14:13:27;5.47;;;3.65;;
49972;SDS011;65693;49.798;10.968;2023-02-13T14:15:55;6.35;;;4.03;;
49972;SDS011;65693;49.798;10.968;2023-02-13T14:18:21;5.82;;;3.72;;
49972;SDS011;65693;49.798;10.968;2023-02-13T14:20:50;5.85;;;3.50;;
49972;SDS011;65693;49.798;10.968;2023-02-13T14:23:25;8.88;;;4.50;;
49972;SDS011;65693;49.798;10.968;2023-02-13T14:29:19;9.57;;;5.40;;
49972;SDS011;65693;49.798;10.968;2023-02-13T14:32:06;9.73;;;5.35;;
49972;SDS011;65693;49.798;10.968;2023-02-13T14:34:41;9.55;;;5.57;;
49972;SDS011;65693;49.798;10.968;2023-02-13T14:37:20;9.48;;;5.55;;
49972;SDS011;65693;49.798;10.968;2023-02-13T14:40:11;13.05;;;5.82;;
49972;SDS011;65693;49.798;10.968;2023-02-13T14:43:02;10.50;;;5.95;;
49972;SDS011;65693;49.798;10.968;2023-02-13T14:45:46;9.80;;;6.03;;
49972;SDS011;65693;49.798;10.968;2023-02-13T14:48:15;11.82;;;7.35;;
49972;SDS011;65693;49.798;10.968;2023-02-13T14:50:43;11.50;;;7.40;;
49972;SDS011;65693;49.798;10.968;2023-02-13T14:53:16;13.50;;;7.32;;
49972;SDS011;65693;49.798;10.968;2023-02-13T14:55:47;13.00;;;8.30;;
49972;SDS011;65693;49.798;10.968;2023-02-13T14:58:23;11.82;;;8.27;;
49972;SDS011;65693;49.798;10.968;2023-02-13T15:01:15;12.23;;;8.35;;
49972;SDS011;65693;49.798;10.968;2023-02-13T15:03:50;11.75;;;8.02;;
49972;SDS011;65693;49.798;10.968;2023-02-13T15:06:23;11.57;;;8.27;;
49972;SDS011;65693;49.798;10.968;2023-02-13T15:08:53;11.85;;;7.80;;
49972;SDS011;65693;49.798;10.968;2023-02-13T15:11:31;12.88;;;8.70;;
49972;SDS011;65693;49.798;10.968;2023-02-13T15:14:17;12.55;;;8.70;;